createdAt,value
2019-06-01T00:00:11.970Z,0.00
2019-06-01T00:01:08.329Z,0.00
2019-06-01T00:02:08.315Z,0.00
2019-06-01T00:03:08.353Z,0.00
2019-06-01T00:04:08.311Z,0.00
2019-06-01T00:05:08.307Z,0.00
2019-06-01T00:06:08.332Z,0.00
2019-06-01T00:07:08.306Z,0.00
2019-06-01T00:08:08.307Z,0.00
2019-06-01T00:09:08.302Z,0.00
2019-06-01T00:10:08.326Z,0.00
2019-06-01T00:11:08.301Z,0.00
2019-06-01T00:12:08.300Z,0.00
2019-06-01T00:13:08.313Z,0.00
2019-06-01T00:14:08.296Z,0.00
2019-06-01T00:15:08.296Z,0.00
2019-06-01T00:16:08.292Z,0.00
2019-06-01T00:17:08.293Z,0.00
2019-06-01T00:18:08.289Z,0.00
2019-06-01T00:19:08.288Z,0.00
2019-06-01T00:20:08.288Z,0.00
2019-06-01T00:21:08.285Z,0.00
2019-06-01T00:22:08.288Z,0.00
2019-06-01T00:23:08.281Z,0.00
2019-06-01T00:24:08.282Z,0.00
2019-06-01T00:25:08.281Z,0.00
2019-06-01T00:26:08.279Z,0.00
2019-06-01T00:27:08.274Z,0.00
2019-06-01T00:28:08.274Z,0.00
2019-06-01T00:29:08.269Z,0.00
2019-06-01T00:30:08.268Z,0.00
2019-06-01T00:31:08.269Z,0.00
2019-06-01T00:32:08.267Z,0.00
2019-06-01T00:33:08.263Z,0.00
2019-06-01T00:34:08.262Z,0.00
2019-06-01T00:35:08.261Z,0.00
2019-06-01T00:36:08.260Z,0.00
2019-06-01T00:37:08.257Z,0.00
2019-06-01T00:38:08.255Z,0.00
2019-06-01T00:39:08.252Z,0.00
2019-06-01T00:40:08.267Z,0.00
2019-06-01T00:41:08.249Z,0.00
2019-06-01T00:42:08.247Z,0.00
2019-06-01T00:43:08.246Z,0.00
2019-06-01T00:44:08.246Z,0.00
2019-06-01T00:45:08.245Z,0.00
2019-06-01T00:46:08.244Z,0.00
2019-06-01T00:47:08.238Z,0.00
2019-06-01T00:48:08.235Z,0.00
2019-06-01T00:49:08.236Z,0.00
2019-06-01T00:50:08.235Z,0.00
2019-06-01T00:51:08.241Z,0.00
2019-06-01T00:52:08.232Z,0.00
2019-06-01T00:53:08.232Z,0.00
2019-06-01T00:54:08.226Z,0.00
2019-06-01T00:55:08.223Z,0.00
2019-06-01T00:56:08.227Z,0.00
2019-06-01T00:57:08.220Z,0.00
2019-06-01T00:58:08.223Z,0.00
2019-06-01T00:59:08.216Z,0.00
2019-06-01T01:00:08.215Z,0.00
2019-06-01T01:01:08.215Z,0.00
2019-06-01T01:02:08.209Z,0.00
2019-06-01T01:03:08.217Z,0.00
2019-06-01T01:04:08.205Z,0.00
2019-06-01T01:05:08.208Z,0.00
2019-06-01T01:06:08.208Z,0.00
2019-06-01T01:07:08.204Z,0.00
2019-06-01T01:08:08.197Z,0.00
2019-06-01T01:09:08.198Z,0.00
2019-06-01T01:10:08.199Z,0.00
2019-06-01T01:11:08.191Z,0.00
2019-06-01T01:12:08.189Z,0.00
2019-06-01T01:13:08.189Z,0.00
2019-06-01T01:14:08.186Z,0.00
2019-06-01T01:15:08.228Z,0.00
2019-06-01T01:16:08.184Z,0.00
2019-06-01T01:17:08.188Z,0.00
2019-06-01T01:18:08.184Z,0.00
2019-06-01T01:19:08.178Z,0.00
2019-06-01T01:20:08.174Z,0.00
2019-06-01T01:21:08.174Z,0.00
2019-06-01T01:22:08.178Z,0.00
2019-06-01T01:23:08.168Z,0.00
2019-06-01T01:24:08.166Z,0.00
2019-06-01T01:25:08.164Z,0.00
2019-06-01T01:26:08.177Z,0.00
2019-06-01T01:27:08.161Z,0.00
2019-06-01T01:28:08.158Z,0.00
2019-06-01T01:29:08.163Z,0.00
2019-06-01T01:30:08.153Z,0.00
2019-06-01T01:31:13.810Z,0.00
2019-06-01T01:32:08.192Z,0.00
2019-06-01T01:33:08.147Z,0.00
2019-06-01T01:34:08.146Z,0.00
2019-06-01T01:35:08.142Z,0.00
2019-06-01T01:36:08.142Z,0.00
2019-06-01T01:37:08.140Z,0.00
2019-06-01T01:38:08.137Z,0.00
2019-06-01T01:39:08.136Z,0.00
2019-06-01T01:40:08.132Z,0.00
2019-06-01T01:41:08.133Z,0.00
2019-06-01T01:42:08.129Z,0.00
2019-06-01T01:43:08.127Z,0.00
2019-06-01T01:44:08.457Z,0.00
2019-06-01T01:45:08.121Z,0.00
2019-06-01T01:46:08.121Z,0.00
2019-06-01T01:47:08.122Z,0.00
2019-06-01T01:48:08.120Z,0.00
2019-06-01T01:49:08.111Z,0.00
2019-06-01T01:50:08.111Z,0.00
2019-06-01T01:51:08.110Z,0.00
2019-06-01T01:52:08.106Z,0.00
2019-06-01T01:53:08.110Z,0.00
2019-06-01T01:54:08.102Z,0.00
2019-06-01T01:55:08.101Z,0.00
2019-06-01T01:56:08.099Z,0.00
2019-06-01T01:57:08.099Z,0.00
2019-06-01T01:58:08.097Z,0.00
2019-06-01T01:59:08.093Z,0.00
2019-06-01T02:00:08.088Z,0.00
2019-06-01T02:01:21.446Z,0.00
2019-06-01T02:02:08.087Z,0.00
2019-06-01T02:03:08.083Z,0.00
2019-06-01T02:04:08.076Z,0.00
2019-06-01T02:05:08.076Z,0.00
2019-06-01T02:06:08.073Z,0.00
2019-06-01T02:07:08.072Z,0.00
2019-06-01T02:08:08.068Z,0.00
2019-06-01T02:09:08.070Z,0.00
2019-06-01T02:10:08.075Z,0.00
2019-06-01T02:11:08.110Z,0.00
2019-06-01T02:12:08.060Z,0.00
2019-06-01T02:13:08.075Z,0.00
2019-06-01T02:14:08.054Z,0.00
2019-06-01T02:15:08.061Z,0.00
2019-06-01T02:16:08.049Z,0.00
2019-06-01T02:17:08.046Z,0.00
2019-06-01T02:18:08.045Z,0.00
2019-06-01T02:19:08.046Z,0.00
2019-06-01T02:20:08.039Z,0.00
2019-06-01T02:21:08.038Z,0.00
2019-06-01T02:22:08.034Z,0.00
2019-06-01T02:23:08.034Z,0.00
2019-06-01T02:24:08.034Z,0.00
2019-06-01T02:25:08.026Z,0.00
2019-06-01T02:26:08.036Z,0.00
2019-06-01T02:27:08.025Z,0.00
2019-06-01T02:28:08.019Z,0.00
2019-06-01T02:29:08.018Z,0.00
2019-06-01T02:30:08.019Z,0.00
2019-06-01T02:31:08.016Z,0.00
2019-06-01T02:32:08.012Z,0.00
2019-06-01T02:33:08.006Z,0.00
2019-06-01T02:34:08.005Z,0.00
2019-06-01T02:35:08.003Z,0.00
2019-06-01T02:36:08.000Z,0.00
2019-06-01T02:37:07.999Z,0.00
2019-06-01T02:38:07.997Z,0.00
2019-06-01T02:39:07.993Z,0.00
2019-06-01T02:40:07.988Z,0.00
2019-06-01T02:41:07.988Z,0.00
2019-06-01T02:42:07.986Z,0.00
2019-06-01T02:43:07.983Z,0.00
2019-06-01T02:44:07.986Z,0.00
2019-06-01T02:45:07.977Z,0.00
2019-06-01T02:46:07.975Z,0.00
2019-06-01T02:47:07.981Z,0.00
2019-06-01T02:48:07.979Z,0.00
2019-06-01T02:49:07.976Z,0.00
2019-06-01T02:50:07.972Z,0.00
2019-06-01T02:51:07.957Z,0.00
2019-06-01T02:52:07.959Z,0.00
2019-06-01T02:53:07.956Z,0.00
2019-06-01T02:54:07.953Z,0.00
2019-06-01T02:55:07.953Z,0.00
2019-06-01T02:56:07.948Z,0.00
2019-06-01T02:57:07.946Z,0.00
2019-06-01T02:58:07.947Z,0.00
2019-06-01T02:59:07.940Z,0.00
2019-06-01T03:00:07.954Z,0.00
2019-06-01T03:01:07.935Z,0.00
2019-06-01T03:02:12.494Z,0.00
2019-06-01T03:03:07.977Z,0.00
2019-06-01T03:04:08.375Z,0.00
2019-06-01T03:05:07.925Z,0.00
2019-06-01T03:06:07.931Z,0.00
2019-06-01T03:07:08.823Z,0.00
2019-06-01T03:08:07.914Z,0.00
2019-06-01T03:09:08.968Z,0.00
2019-06-01T03:10:08.972Z,0.00
2019-06-01T03:11:08.130Z,0.00
2019-06-01T03:12:08.219Z,0.00
2019-06-01T03:13:08.360Z,0.00
2019-06-01T03:14:08.967Z,0.00
2019-06-01T03:15:08.643Z,0.00
2019-06-01T03:16:08.913Z,0.00
2019-06-01T03:17:07.963Z,5.63
2019-06-01T03:18:35.707Z,5.63
2019-06-01T03:19:08.091Z,5.63
2019-06-01T03:20:07.911Z,5.63
2019-06-01T03:21:07.936Z,5.63
2019-06-01T03:22:08.648Z,5.63
2019-06-01T03:23:07.954Z,5.63
2019-06-01T03:24:08.135Z,5.63
2019-06-01T03:25:08.064Z,5.63
2019-06-01T03:26:08.687Z,5.63
2019-06-01T03:27:08.266Z,5.63
2019-06-01T03:28:08.183Z,5.63
2019-06-01T03:29:09.474Z,5.63
2019-06-01T03:30:09.815Z,5.63
2019-06-01T03:31:08.843Z,5.63
2019-06-01T03:32:29.743Z,5.63
2019-06-01T03:33:10.332Z,5.63
2019-06-01T03:34:09.332Z,11.25
2019-06-01T03:35:08.827Z,11.25
2019-06-01T03:36:08.984Z,11.25
2019-06-01T03:37:09.041Z,11.25
2019-06-01T03:38:09.204Z,11.25
2019-06-01T03:39:08.243Z,11.25
2019-06-01T03:40:15.590Z,11.25
2019-06-01T03:41:08.248Z,11.25
2019-06-01T03:42:08.064Z,11.25
2019-06-01T03:43:07.817Z,16.88
2019-06-01T03:44:08.526Z,16.88
2019-06-01T03:45:07.814Z,16.88
2019-06-01T03:46:08.743Z,16.88
2019-06-01T03:47:07.807Z,16.88
2019-06-01T03:48:08.768Z,16.88
2019-06-01T03:49:07.802Z,22.50
2019-06-01T03:50:09.129Z,22.50
2019-06-01T03:51:08.315Z,22.50
2019-06-01T03:52:08.817Z,22.50
2019-06-01T03:53:07.914Z,22.50
2019-06-01T03:54:08.553Z,28.13
2019-06-01T03:55:07.834Z,28.13
2019-06-01T03:56:08.985Z,28.13
2019-06-01T03:57:09.099Z,28.13
2019-06-01T03:58:09.062Z,28.13
2019-06-01T03:59:07.774Z,28.13
2019-06-01T04:00:07.773Z,33.75
2019-06-01T04:01:07.768Z,33.75
2019-06-01T04:02:07.769Z,33.75
2019-06-01T04:03:07.766Z,33.75
2019-06-01T04:04:07.762Z,33.75
2019-06-01T04:05:07.758Z,33.75
2019-06-01T04:06:07.756Z,39.38
2019-06-01T04:07:08.293Z,39.38
2019-06-01T04:08:07.747Z,39.38
2019-06-01T04:09:07.888Z,39.38
2019-06-01T04:10:08.040Z,39.38
2019-06-01T04:11:07.816Z,39.38
2019-06-01T04:12:07.771Z,39.38
2019-06-01T04:13:07.738Z,45.00
2019-06-01T04:14:07.820Z,45.00
2019-06-01T04:15:11.842Z,45.00
2019-06-01T04:16:07.926Z,45.00
2019-06-01T04:17:08.119Z,45.00
2019-06-01T04:18:08.103Z,45.00
2019-06-01T04:19:08.057Z,45.00
2019-06-01T04:20:08.197Z,50.63
2019-06-01T04:21:08.129Z,50.63
2019-06-01T04:22:08.013Z,50.63
2019-06-01T04:23:08.071Z,50.63
2019-06-01T04:24:08.038Z,56.25
2019-06-01T04:25:08.320Z,56.25
2019-06-01T04:26:08.126Z,56.25
2019-06-01T04:27:08.227Z,61.88
2019-06-01T04:28:08.192Z,61.88
2019-06-01T04:29:08.291Z,61.88
2019-06-01T04:30:07.694Z,61.88
2019-06-01T04:31:08.557Z,61.88
2019-06-01T04:32:08.661Z,61.88
2019-06-01T04:33:08.901Z,61.88
2019-06-01T04:34:08.775Z,67.50
2019-06-01T04:35:08.906Z,67.50
2019-06-01T04:36:08.944Z,67.50
2019-06-01T04:37:07.679Z,73.13
2019-06-01T04:38:07.672Z,73.13
2019-06-01T04:39:07.678Z,78.75
2019-06-01T04:40:07.668Z,78.75
2019-06-01T04:41:07.674Z,84.38
2019-06-01T04:42:07.750Z,84.38
2019-06-01T04:43:07.958Z,90.00
2019-06-01T04:44:07.867Z,90.00
2019-06-01T04:45:08.930Z,95.63
2019-06-01T04:46:08.170Z,95.63
2019-06-01T04:47:09.293Z,95.63
2019-06-01T04:48:08.425Z,101.25
2019-06-01T04:49:08.566Z,101.25
2019-06-01T04:50:08.728Z,101.25
2019-06-01T04:51:08.809Z,106.88
2019-06-01T04:52:08.801Z,106.88
2019-06-01T04:53:08.764Z,112.50
2019-06-01T04:54:08.723Z,112.50
2019-06-01T04:55:08.965Z,112.50
2019-06-01T04:56:08.879Z,112.50
2019-06-01T04:57:08.818Z,118.13
2019-06-01T04:58:08.752Z,118.13
2019-06-01T04:59:08.808Z,123.75
2019-06-01T05:00:19.772Z,129.38
2019-06-01T05:01:08.862Z,129.38
2019-06-01T05:02:09.072Z,135.00
2019-06-01T05:03:09.241Z,135.00
2019-06-01T05:04:07.621Z,140.63
2019-06-01T05:05:07.619Z,140.63
2019-06-01T05:06:07.616Z,146.25
2019-06-01T05:07:07.615Z,151.88
2019-06-01T05:08:07.613Z,168.75
2019-06-01T05:09:07.620Z,180.00
2019-06-01T05:10:07.721Z,236.25
2019-06-01T05:11:08.976Z,292.50
2019-06-01T05:12:07.611Z,264.38
2019-06-01T05:13:07.606Z,213.75
2019-06-01T05:14:07.621Z,208.13
2019-06-01T05:15:07.658Z,258.75
2019-06-01T05:16:07.915Z,292.50
2019-06-01T05:17:07.873Z,241.88
2019-06-01T05:18:07.965Z,196.88
2019-06-01T05:19:08.099Z,185.63
2019-06-01T05:20:08.276Z,191.25
2019-06-01T05:21:08.425Z,213.75
2019-06-01T05:22:08.419Z,247.50
2019-06-01T05:23:08.526Z,286.88
2019-06-01T05:24:08.833Z,303.75
2019-06-01T05:25:08.828Z,298.13
2019-06-01T05:26:08.681Z,275.63
2019-06-01T05:27:08.885Z,230.63
2019-06-01T05:28:07.608Z,219.38
2019-06-01T05:29:07.602Z,219.38
2019-06-01T05:30:07.607Z,219.38
2019-06-01T05:31:09.723Z,241.88
2019-06-01T05:32:08.392Z,315.00
2019-06-01T05:33:21.436Z,315.00
2019-06-01T05:34:07.765Z,286.88
2019-06-01T05:35:07.781Z,281.25
2019-06-01T05:36:08.025Z,236.25
2019-06-01T05:37:08.500Z,213.75
2019-06-01T05:38:08.129Z,208.13
2019-06-01T05:39:08.242Z,213.75
2019-06-01T05:40:08.440Z,213.75
2019-06-01T05:41:09.968Z,213.75
2019-06-01T05:42:08.882Z,213.75
2019-06-01T05:43:12.439Z,213.75
2019-06-01T05:44:08.801Z,213.75
2019-06-01T05:45:08.992Z,219.38
2019-06-01T05:46:07.614Z,219.38
2019-06-01T05:47:07.630Z,225.00
2019-06-01T05:48:07.624Z,236.25
2019-06-01T05:49:07.619Z,247.50
2019-06-01T05:50:07.627Z,264.38
2019-06-01T05:51:07.615Z,275.63
2019-06-01T05:52:07.620Z,275.63
2019-06-01T05:53:07.620Z,253.13
2019-06-01T05:54:07.624Z,253.13
2019-06-01T05:55:07.627Z,270.00
2019-06-01T05:56:07.625Z,298.13
2019-06-01T05:57:07.621Z,303.75
2019-06-01T05:58:07.631Z,298.13
2019-06-01T05:59:07.651Z,286.88
2019-06-01T06:00:07.628Z,258.75
2019-06-01T06:01:07.631Z,241.88
2019-06-01T06:02:07.629Z,236.25
2019-06-01T06:03:07.638Z,236.25
2019-06-01T06:04:07.632Z,236.25
2019-06-01T06:05:07.636Z,236.25
2019-06-01T06:06:07.675Z,236.25
2019-06-01T06:07:07.638Z,236.25
2019-06-01T06:08:07.640Z,241.88
2019-06-01T06:09:07.656Z,247.50
2019-06-01T06:10:07.649Z,264.38
2019-06-01T06:11:07.671Z,264.38
2019-06-01T06:12:07.642Z,247.50
2019-06-01T06:13:07.645Z,253.13
2019-06-01T06:14:07.645Z,258.75
2019-06-01T06:15:07.648Z,247.50
2019-06-01T06:16:07.648Z,241.88
2019-06-01T06:17:07.647Z,230.63
2019-06-01T06:18:07.649Z,230.63
2019-06-01T06:19:07.650Z,230.63
2019-06-01T06:20:07.659Z,230.63
2019-06-01T06:21:07.655Z,230.63
2019-06-01T06:22:07.657Z,230.63
2019-06-01T06:23:07.658Z,230.63
2019-06-01T06:24:07.658Z,230.63
2019-06-01T06:25:07.678Z,230.63
2019-06-01T06:26:07.667Z,236.25
2019-06-01T06:27:07.661Z,230.63
2019-06-01T06:28:07.665Z,230.63
2019-06-01T06:29:07.677Z,230.63
2019-06-01T06:30:07.665Z,230.63
2019-06-01T06:31:07.672Z,230.63
2019-06-01T06:32:09.333Z,230.63
2019-06-01T06:33:07.671Z,230.63
2019-06-01T06:34:07.680Z,225.00
2019-06-01T06:35:07.672Z,225.00
2019-06-01T06:36:07.668Z,230.63
2019-06-01T06:37:07.673Z,236.25
2019-06-01T06:38:07.683Z,236.25
2019-06-01T06:39:07.686Z,236.25
2019-06-01T06:40:07.678Z,236.25
2019-06-01T06:41:07.725Z,236.25
2019-06-01T06:42:07.676Z,236.25
2019-06-01T06:43:18.995Z,174.38
2019-06-01T06:44:07.701Z,174.38
2019-06-01T06:45:07.690Z,135.00
2019-06-01T06:46:07.681Z,208.13
2019-06-01T06:47:07.682Z,208.13
2019-06-01T06:48:07.690Z,106.88
2019-06-01T06:49:09.965Z,213.75
2019-06-01T06:50:07.687Z,219.38
2019-06-01T06:51:07.687Z,213.75
2019-06-01T06:52:07.697Z,219.38
2019-06-01T06:53:07.697Z,196.88
2019-06-01T06:54:07.704Z,185.63
2019-06-01T06:55:07.689Z,157.50
2019-06-01T06:56:07.690Z,168.75
2019-06-01T06:57:07.697Z,185.63
2019-06-01T06:58:07.695Z,180.00
2019-06-01T06:59:07.723Z,180.00
2019-06-01T07:00:07.696Z,185.63
2019-06-01T07:01:11.801Z,163.13
2019-06-01T07:02:07.711Z,168.75
2019-06-01T07:03:07.699Z,174.38
2019-06-01T07:04:12.623Z,174.38
2019-06-01T07:05:07.703Z,168.75
2019-06-01T07:06:07.702Z,168.75
2019-06-01T07:07:07.706Z,168.75
2019-06-01T07:08:07.705Z,163.13
2019-06-01T07:09:07.716Z,163.13
2019-06-01T07:10:07.723Z,168.75
2019-06-01T07:11:07.728Z,168.75
2019-06-01T07:12:07.713Z,163.13
2019-06-01T07:13:07.915Z,163.13
2019-06-01T07:14:07.725Z,163.13
2019-06-01T07:15:07.730Z,163.13
2019-06-01T07:16:07.735Z,163.13
2019-06-01T07:17:07.720Z,168.75
2019-06-01T07:18:07.739Z,174.38
2019-06-01T07:19:07.724Z,180.00
2019-06-01T07:20:07.737Z,191.25
2019-06-01T07:21:07.742Z,191.25
2019-06-01T07:22:07.729Z,196.88
2019-06-01T07:23:07.735Z,196.88
2019-06-01T07:24:07.733Z,202.50
2019-06-01T07:25:07.736Z,196.88
2019-06-01T07:26:07.747Z,202.50
2019-06-01T07:27:07.743Z,202.50
2019-06-01T07:28:07.755Z,208.13
2019-06-01T07:29:07.745Z,196.88
2019-06-01T07:30:07.747Z,196.88
2019-06-01T07:31:07.750Z,196.88
2019-06-01T07:32:07.750Z,196.88
2019-06-01T07:33:07.755Z,196.88
2019-06-01T07:34:07.756Z,196.88
2019-06-01T07:35:07.757Z,191.25
2019-06-01T07:36:07.759Z,185.63
2019-06-01T07:37:07.766Z,185.63
2019-06-01T07:38:07.764Z,185.63
2019-06-01T07:39:07.767Z,191.25
2019-06-01T07:40:12.946Z,185.63
2019-06-01T07:41:07.773Z,185.63
2019-06-01T07:42:07.794Z,185.63
2019-06-01T07:43:07.782Z,185.63
2019-06-01T07:44:07.778Z,185.63
2019-06-01T07:45:07.787Z,180.00
2019-06-01T07:46:07.784Z,174.38
2019-06-01T07:47:07.787Z,174.38
2019-06-01T07:48:07.789Z,163.13
2019-06-01T07:49:07.794Z,157.50
2019-06-01T07:50:07.795Z,151.88
2019-06-01T07:51:07.799Z,146.25
2019-06-01T07:52:12.727Z,135.00
2019-06-01T07:53:07.805Z,129.38
2019-06-01T07:54:07.808Z,129.38
2019-06-01T07:55:07.813Z,123.75
2019-06-01T07:56:07.814Z,123.75
2019-06-01T07:57:07.812Z,118.13
2019-06-01T07:58:07.817Z,112.50
2019-06-01T07:59:07.822Z,106.88
2019-06-01T08:00:07.823Z,106.88
2019-06-01T08:01:07.829Z,101.25
2019-06-01T08:02:07.843Z,106.88
2019-06-01T08:03:07.829Z,106.88
2019-06-01T08:04:07.834Z,106.88
2019-06-01T08:05:07.837Z,106.88
2019-06-01T08:06:07.839Z,106.88
2019-06-01T08:07:07.853Z,106.88
2019-06-01T08:08:07.896Z,106.88
2019-06-01T08:09:07.858Z,106.88
2019-06-01T08:10:07.872Z,106.88
2019-06-01T08:11:07.880Z,106.88
2019-06-01T08:12:07.856Z,101.25
2019-06-01T08:13:07.858Z,106.88
2019-06-01T08:14:07.861Z,106.88
2019-06-01T08:15:07.864Z,106.88
2019-06-01T08:16:07.868Z,106.88
2019-06-01T08:17:07.866Z,101.25
2019-06-01T08:18:07.868Z,101.25
2019-06-01T08:19:07.874Z,106.88
2019-06-01T08:20:07.881Z,106.88
2019-06-01T08:21:07.880Z,106.88
2019-06-01T08:22:07.893Z,101.25
2019-06-01T08:23:07.897Z,106.88
2019-06-01T08:24:07.951Z,112.50
2019-06-01T08:25:07.888Z,106.88
2019-06-01T08:26:07.894Z,112.50
2019-06-01T08:27:07.904Z,101.25
2019-06-01T08:28:07.908Z,95.63
2019-06-01T08:29:07.899Z,112.50
2019-06-01T08:30:07.903Z,123.75
2019-06-01T08:31:07.903Z,101.25
2019-06-01T08:32:07.906Z,191.25
2019-06-01T08:33:07.905Z,202.50
2019-06-01T08:34:08.033Z,213.75
2019-06-01T08:35:09.625Z,213.75
2019-06-01T08:36:07.925Z,213.75
2019-06-01T08:37:07.922Z,196.88
2019-06-01T08:38:07.928Z,208.13
2019-06-01T08:39:07.929Z,213.75
2019-06-01T08:40:07.931Z,225.00
2019-06-01T08:41:07.936Z,196.88
2019-06-01T08:42:07.941Z,225.00
2019-06-01T08:43:07.942Z,225.00
2019-06-01T08:44:07.948Z,230.63
2019-06-01T08:45:07.952Z,230.63
2019-06-01T08:46:07.966Z,230.63
2019-06-01T08:47:07.995Z,241.88
2019-06-01T08:48:07.983Z,241.88
2019-06-01T08:49:07.973Z,253.13
2019-06-01T08:50:07.991Z,253.13
2019-06-01T08:51:07.986Z,253.13
2019-06-01T08:52:07.988Z,264.38
2019-06-01T08:53:07.995Z,264.38
2019-06-01T08:54:08.003Z,140.63
2019-06-01T08:55:08.007Z,123.75
2019-06-01T08:56:08.014Z,118.13
2019-06-01T08:57:08.025Z,123.75
2019-06-01T08:58:08.082Z,151.88
2019-06-01T08:59:08.029Z,309.38
2019-06-01T09:00:08.038Z,337.50
2019-06-01T09:01:08.042Z,292.50
2019-06-01T09:02:08.051Z,230.63
2019-06-01T09:03:08.056Z,196.88
2019-06-01T09:04:08.086Z,185.63
2019-06-01T09:05:21.274Z,331.88
2019-06-01T09:06:08.072Z,225.00
2019-06-01T09:07:08.079Z,168.75
2019-06-01T09:08:08.091Z,163.13
2019-06-01T09:09:11.524Z,151.88
2019-06-01T09:10:08.101Z,146.25
2019-06-01T09:11:08.105Z,135.00
2019-06-01T09:12:08.107Z,129.38
2019-06-01T09:13:08.113Z,123.75
2019-06-01T09:14:08.118Z,123.75
2019-06-01T09:15:08.124Z,129.38
2019-06-01T09:16:08.130Z,135.00
2019-06-01T09:17:08.139Z,146.25
2019-06-01T09:18:08.142Z,191.25
2019-06-01T09:19:11.166Z,264.38
2019-06-01T09:20:08.148Z,208.13
2019-06-01T09:21:08.154Z,253.13
2019-06-01T09:22:08.159Z,247.50
2019-06-01T09:23:08.166Z,236.25
2019-06-01T09:24:08.174Z,264.38
2019-06-01T09:25:08.183Z,286.88
2019-06-01T09:26:08.183Z,275.63
2019-06-01T09:27:08.189Z,320.63
2019-06-01T09:28:08.190Z,320.63
2019-06-01T09:29:08.201Z,326.25
2019-06-01T09:30:08.205Z,348.75
2019-06-01T09:31:08.210Z,354.38
2019-06-01T09:32:11.049Z,337.50
2019-06-01T09:33:08.223Z,292.50
2019-06-01T09:34:08.228Z,382.50
2019-06-01T09:35:08.239Z,382.50
2019-06-01T09:36:08.240Z,365.63
2019-06-01T09:37:08.248Z,365.63
2019-06-01T09:38:08.255Z,354.38
2019-06-01T09:39:08.262Z,388.13
2019-06-01T09:40:08.271Z,382.50
2019-06-01T09:41:08.288Z,388.13
2019-06-01T09:42:08.285Z,405.00
2019-06-01T09:43:08.292Z,399.38
2019-06-01T09:44:08.300Z,399.38
2019-06-01T09:45:08.318Z,388.13
2019-06-01T09:46:08.316Z,360.00
2019-06-01T09:47:08.322Z,326.25
2019-06-01T09:48:08.333Z,360.00
2019-06-01T09:49:08.339Z,376.88
2019-06-01T09:50:08.347Z,298.13
2019-06-01T09:51:08.356Z,371.25
2019-06-01T09:52:12.158Z,326.25
2019-06-01T09:53:08.368Z,472.50
2019-06-01T09:54:08.381Z,489.38
2019-06-01T09:55:08.409Z,489.38
2019-06-01T09:56:08.399Z,500.63
2019-06-01T09:57:08.415Z,500.63
2019-06-01T09:58:08.415Z,523.13
2019-06-01T09:59:08.421Z,388.13
2019-06-01T10:00:08.431Z,556.88
2019-06-01T10:01:08.437Z,590.63
2019-06-01T10:02:08.446Z,562.50
2019-06-01T10:03:08.451Z,506.25
2019-06-01T10:04:08.464Z,528.75
2019-06-01T10:05:08.497Z,551.25
2019-06-01T10:06:08.784Z,545.63
2019-06-01T10:07:08.772Z,579.38
2019-06-01T10:08:08.561Z,303.75
2019-06-01T10:09:08.516Z,168.75
2019-06-01T10:10:08.516Z,455.63
2019-06-01T10:11:09.421Z,596.25
2019-06-01T10:12:09.429Z,585.00
2019-06-01T10:13:08.769Z,601.88
2019-06-01T10:14:09.392Z,630.00
2019-06-01T10:15:09.042Z,641.25
2019-06-01T10:16:08.756Z,714.38
2019-06-01T10:17:08.859Z,736.88
2019-06-01T10:18:08.773Z,765.00
2019-06-01T10:19:08.756Z,804.38
2019-06-01T10:20:08.976Z,826.88
2019-06-01T10:21:08.826Z,793.13
2019-06-01T10:22:09.371Z,804.38
2019-06-01T10:23:08.657Z,804.38
2019-06-01T10:24:08.847Z,855.00
2019-06-01T10:25:08.863Z,855.00
2019-06-01T10:26:08.728Z,810.00
2019-06-01T10:27:08.823Z,303.75
2019-06-01T10:28:08.906Z,455.63
2019-06-01T10:29:09.136Z,838.13
2019-06-01T10:30:08.947Z,843.75
2019-06-01T10:31:08.971Z,810.00
2019-06-01T10:32:08.735Z,236.25
2019-06-01T10:33:08.728Z,405.00
2019-06-01T10:34:09.829Z,163.13
2019-06-01T10:35:08.747Z,264.38
2019-06-01T10:36:20.056Z,371.25
2019-06-01T10:37:08.968Z,579.38
2019-06-01T10:38:08.864Z,714.38
2019-06-01T10:39:08.834Z,483.75
2019-06-01T10:40:08.850Z,1006.88
2019-06-01T10:41:09.098Z,1029.38
2019-06-01T10:42:08.812Z,1012.50
2019-06-01T10:43:09.166Z,1029.38
2019-06-01T10:44:09.036Z,894.38
2019-06-01T10:45:08.862Z,1040.63
2019-06-01T10:46:09.842Z,1035.00
2019-06-01T10:47:09.072Z,1068.75
2019-06-01T10:48:08.868Z,1158.75
2019-06-01T10:49:08.865Z,1209.38
2019-06-01T10:50:09.697Z,1265.63
2019-06-01T10:51:09.021Z,1068.75
2019-06-01T10:52:09.054Z,202.50
2019-06-01T10:53:09.340Z,219.38
2019-06-01T10:54:08.915Z,1057.50
2019-06-01T10:55:08.993Z,1271.25
2019-06-01T10:56:09.043Z,1237.50
2019-06-01T10:57:08.992Z,208.13
2019-06-01T10:58:08.982Z,180.00
2019-06-01T10:59:08.980Z,247.50
2019-06-01T11:00:09.001Z,168.75
2019-06-01T11:01:09.011Z,213.75
2019-06-01T11:02:09.037Z,708.75
2019-06-01T11:03:09.057Z,1158.75
2019-06-01T11:04:09.061Z,1158.75
2019-06-01T11:05:09.091Z,1181.25
2019-06-01T11:06:09.311Z,1271.25
2019-06-01T11:07:09.440Z,1186.88
2019-06-01T11:08:09.215Z,1271.25
2019-06-01T11:09:09.056Z,1316.25
2019-06-01T11:10:09.068Z,1366.88
2019-06-01T11:11:09.078Z,1406.25
2019-06-01T11:12:09.088Z,1400.63
2019-06-01T11:13:09.187Z,776.25
2019-06-01T11:14:09.169Z,1327.50
2019-06-01T11:15:09.179Z,331.88
2019-06-01T11:16:09.134Z,303.75
2019-06-01T11:17:09.186Z,196.88
2019-06-01T11:18:09.150Z,1192.50
2019-06-01T11:19:09.195Z,1406.25
2019-06-01T11:20:09.181Z,1445.63
2019-06-01T11:21:09.177Z,1485.00
2019-06-01T11:22:09.191Z,1496.25
2019-06-01T11:23:09.200Z,1518.75
2019-06-01T11:24:09.209Z,1518.75
2019-06-01T11:25:09.221Z,1575.00
2019-06-01T11:26:09.228Z,281.25
2019-06-01T11:27:09.258Z,933.75
2019-06-01T11:28:09.261Z,1693.13
2019-06-01T11:29:09.331Z,1693.13
2019-06-01T11:30:09.273Z,1681.88
2019-06-01T11:31:09.286Z,1710.00
2019-06-01T11:32:09.298Z,1704.38
2019-06-01T11:33:09.307Z,1715.63
2019-06-01T11:34:09.334Z,1760.63
2019-06-01T11:35:09.334Z,1755.00
2019-06-01T11:36:09.360Z,1794.38
2019-06-01T11:37:09.363Z,1378.13
2019-06-01T11:38:09.372Z,635.63
2019-06-01T11:39:09.384Z,1755.00
2019-06-01T11:40:09.402Z,1816.88
2019-06-01T11:41:09.408Z,1800.00
2019-06-01T11:42:09.460Z,1867.50
2019-06-01T11:43:09.502Z,1760.63
2019-06-01T11:44:09.453Z,1485.00
2019-06-01T11:45:09.459Z,196.88
2019-06-01T11:46:09.477Z,320.63
2019-06-01T11:47:09.486Z,180.00
2019-06-01T11:48:09.500Z,180.00
2019-06-01T11:49:09.546Z,202.50
2019-06-01T11:50:09.521Z,939.38
2019-06-01T11:51:09.533Z,1102.50
2019-06-01T11:52:09.545Z,1923.75
2019-06-01T11:53:09.572Z,2002.50
2019-06-01T11:54:09.573Z,2002.50
2019-06-01T11:55:09.601Z,1980.00
2019-06-01T11:56:09.591Z,1991.25
2019-06-01T11:57:09.600Z,2002.50
2019-06-01T11:58:09.625Z,1996.88
2019-06-01T11:59:09.674Z,1974.38
2019-06-01T12:00:09.647Z,1946.25
2019-06-01T12:01:09.654Z,1912.50
2019-06-01T12:02:09.666Z,1951.88
2019-06-01T12:03:09.698Z,1946.25
2019-06-01T12:04:09.690Z,1929.38
2019-06-01T12:05:09.701Z,1951.88
2019-06-01T12:06:09.718Z,1946.25
2019-06-01T12:07:17.366Z,1895.63
2019-06-01T12:08:09.743Z,1850.63
2019-06-01T12:09:09.800Z,1996.88
2019-06-01T12:10:09.772Z,1935.00
2019-06-01T12:11:09.781Z,1980.00
2019-06-01T12:12:09.815Z,2058.75
2019-06-01T12:13:09.853Z,2047.50
2019-06-01T12:14:10.081Z,2002.50
2019-06-01T12:15:09.839Z,2013.75
2019-06-01T12:16:10.255Z,2041.88
2019-06-01T12:17:09.895Z,2013.75
2019-06-01T12:18:09.885Z,1940.63
2019-06-01T12:19:10.305Z,1884.38
2019-06-01T12:20:09.911Z,1811.25
2019-06-01T12:21:09.990Z,1743.75
2019-06-01T12:22:11.475Z,1687.50
2019-06-01T12:23:09.959Z,1597.50
2019-06-01T12:24:09.981Z,1603.13
2019-06-01T12:25:09.993Z,1681.88
2019-06-01T12:26:10.000Z,1738.13
2019-06-01T12:27:10.020Z,489.38
2019-06-01T12:28:10.033Z,185.63
2019-06-01T12:29:10.391Z,168.75
2019-06-01T12:30:10.066Z,174.38
2019-06-01T12:31:10.105Z,1265.63
2019-06-01T12:32:10.092Z,2041.88
2019-06-01T12:33:10.107Z,2109.38
2019-06-01T12:34:10.122Z,2103.75
2019-06-01T12:35:10.141Z,2070.00
2019-06-01T12:36:10.153Z,2002.50
2019-06-01T12:37:10.170Z,1788.75
2019-06-01T12:38:10.284Z,1929.38
2019-06-01T12:39:10.419Z,1935.00
2019-06-01T12:40:10.337Z,2120.63
2019-06-01T12:41:11.400Z,2238.75